createdAt,value
2022-08-10T00:02:00.488Z,54.86
2022-08-10T00:05:03.978Z,54.92
2022-08-10T00:08:06.878Z,54.92
2022-08-10T00:11:15.324Z,55.00
2022-08-10T00:14:19.786Z,55.07
2022-08-10T00:17:22.804Z,55.13
2022-08-10T00:20:25.878Z,55.22
2022-08-10T00:23:28.750Z,55.27
2022-08-10T00:27:52.895Z,55.28
2022-08-10T00:29:56.119Z,55.42
2022-08-10T00:32:58.967Z,55.46
2022-08-10T00:36:01.980Z,55.49
2022-08-10T00:39:04.938Z,55.53
2022-08-10T00:42:10.160Z,55.58
2022-08-10T00:45:13.466Z,55.66
2022-08-10T00:48:16.400Z,55.76
2022-08-10T00:51:19.412Z,55.63
2022-08-10T00:54:26.618Z,55.76
2022-08-10T00:57:30.396Z,55.77
2022-08-10T01:00:33.264Z,55.84
2022-08-10T01:04:43.593Z,55.87
2022-08-10T01:07:25.499Z,55.89
2022-08-10T01:10:48.808Z,55.94
2022-08-10T01:14:07.855Z,56.08
2022-08-10T01:17:15.437Z,55.93
2022-08-10T01:20:30.978Z,55.94
2022-08-10T01:23:53.993Z,56.08
2022-08-10T01:27:18.607Z,56.21
2022-08-10T01:30:24.422Z,56.27
2022-08-10T01:33:57.879Z,56.28
2022-08-10T01:37:14.581Z,56.39
2022-08-10T01:40:23.110Z,56.35
2022-08-10T01:43:29.741Z,56.40
2022-08-10T01:46:35.028Z,56.23
2022-08-10T01:49:38.252Z,56.24
2022-08-10T01:52:43.176Z,56.22
2022-08-10T01:55:50.027Z,56.28
2022-08-10T01:58:58.669Z,56.34
2022-08-10T02:02:05.427Z,56.54
2022-08-10T02:05:10.426Z,56.55
2022-08-10T02:08:16.396Z,56.53
2022-08-10T02:11:21.715Z,56.63
2022-08-10T02:14:34.893Z,56.46
2022-08-10T02:17:59.065Z,56.59
2022-08-10T02:21:08.309Z,56.59
2022-08-10T02:24:13.852Z,56.58
2022-08-10T02:27:19.283Z,56.66
2022-08-10T02:30:23.141Z,56.72
2022-08-10T02:33:27.809Z,56.70
2022-08-10T02:36:34.299Z,56.68
2022-08-10T02:39:37.472Z,56.71
2022-08-10T02:45:19.721Z,56.76
2022-08-10T02:46:22.516Z,56.91
2022-08-10T02:49:35.543Z,56.93
2022-08-10T02:52:46.619Z,57.03
2022-08-10T02:56:10.128Z,57.03
2022-08-10T02:59:28.001Z,57.21
2022-08-10T03:02:49.802Z,57.11
2022-08-10T03:06:01.459Z,57.08
2022-08-10T03:09:07.825Z,57.17
2022-08-10T03:12:35.426Z,57.11
2022-08-10T03:15:38.804Z,57.15
2022-08-10T03:18:43.394Z,57.19
2022-08-10T03:21:49.076Z,57.17
2022-08-10T03:24:54.318Z,57.27
2022-08-10T03:27:58.013Z,57.39
2022-08-10T03:31:02.092Z,57.49
2022-08-10T03:34:05.984Z,57.47
2022-08-10T03:37:28.944Z,57.54
2022-08-10T03:40:45.681Z,57.61
2022-08-10T03:43:50.258Z,57.70
2022-08-10T03:46:54.393Z,57.74
2022-08-10T03:49:59.324Z,57.83
2022-08-10T03:54:02.485Z,57.81
2022-08-10T03:56:46.086Z,57.96
2022-08-10T03:59:50.047Z,57.90
2022-08-10T04:02:54.214Z,57.98
2022-08-10T04:05:58.006Z,58.03
2022-08-10T04:09:02.488Z,58.06
2022-08-10T04:12:06.504Z,58.16
2022-08-10T04:15:09.815Z,58.20
2022-08-10T04:18:12.708Z,58.25
2022-08-10T04:21:19.121Z,58.25
2022-08-10T04:24:29.757Z,58.47
2022-08-10T04:27:36.152Z,58.46
2022-08-10T04:30:40.920Z,58.53
2022-08-10T04:33:48.093Z,58.61
2022-08-10T04:36:54.403Z,58.64
2022-08-10T04:39:57.771Z,58.71
2022-08-10T04:43:12.283Z,58.83
2022-08-10T04:46:56.061Z,58.95
2022-08-10T04:49:56.297Z,58.98
2022-08-10T04:52:59.833Z,59.14
2022-08-10T04:56:02.761Z,59.16
2022-08-10T04:59:07.837Z,59.38
2022-08-10T05:02:28.933Z,59.32
2022-08-10T05:05:34.585Z,59.51
2022-08-10T05:08:37.546Z,59.55
2022-08-10T05:11:40.542Z,59.66
2022-08-10T05:14:43.635Z,59.79
2022-08-10T05:18:06.860Z,59.78
2022-08-10T05:21:09.771Z,59.90
2022-08-10T05:24:12.729Z,60.03
2022-08-10T05:27:15.572Z,60.11
2022-08-10T05:30:20.803Z,60.21
2022-08-10T05:33:23.711Z,60.28
2022-08-10T05:36:27.543Z,60.35
2022-08-10T05:39:32.265Z,60.43
2022-08-10T05:42:35.850Z,60.36
2022-08-10T05:46:17.902Z,60.44
2022-08-10T05:49:02.280Z,60.42
2022-08-10T05:52:05.643Z,60.39
2022-08-10T05:55:09.328Z,60.30
2022-08-10T05:58:12.524Z,60.25
2022-08-10T06:01:18.918Z,60.12
2022-08-10T06:04:30.653Z,59.97
2022-08-10T06:07:37.086Z,59.89
2022-08-10T06:12:16.537Z,59.71
2022-08-10T06:14:28.517Z,59.41
2022-08-10T06:17:32.363Z,59.13
2022-08-10T06:20:36.333Z,58.73
2022-08-10T06:23:40.055Z,58.72
2022-08-10T06:26:44.851Z,58.61
2022-08-10T06:29:49.516Z,58.72
2022-08-10T06:32:55.724Z,58.66
2022-08-10T06:36:00.784Z,58.40
2022-08-10T06:39:29.946Z,58.01
2022-08-10T06:42:32.400Z,57.81
2022-08-10T06:45:44.161Z,57.65
2022-08-10T06:48:52.952Z,57.32
2022-08-10T06:51:57.794Z,57.10
2022-08-10T06:55:05.602Z,56.83
2022-08-10T06:58:14.447Z,56.47
2022-08-10T07:01:22.846Z,56.23
2022-08-10T07:04:32.404Z,56.24
2022-08-10T07:07:41.242Z,55.74
2022-08-10T07:10:48.023Z,55.40
2022-08-10T07:14:16.917Z,55.23
2022-08-10T07:17:19.484Z,54.81
2022-08-10T07:20:24.060Z,54.16
2022-08-10T07:23:56.869Z,54.13
2022-08-10T07:26:54.922Z,53.80
2022-08-10T07:30:00.317Z,53.36
2022-08-10T07:33:06.235Z,53.09
2022-08-10T07:36:11.327Z,52.99
2022-08-10T07:39:17.156Z,52.87
2022-08-10T07:42:45.898Z,52.46
2022-08-10T07:45:50.529Z,52.08
2022-08-10T07:49:16.740Z,51.94
2022-08-10T07:52:23.777Z,51.81
2022-08-10T07:56:05.147Z,51.53
2022-08-10T07:58:55.618Z,51.42
2022-08-10T08:02:01.202Z,50.55
2022-08-10T08:05:09.957Z,50.33
2022-08-10T08:08:15.485Z,50.15
2022-08-10T08:11:25.701Z,50.00
2022-08-10T08:14:31.395Z,49.23
2022-08-10T08:17:36.466Z,48.93
2022-08-10T08:20:41.271Z,49.22
2022-08-10T08:24:10.688Z,48.94
2022-08-10T08:27:17.596Z,48.86
2022-08-10T08:30:27.789Z,48.13
2022-08-10T08:33:41.587Z,47.68
2022-08-10T08:36:47.666Z,47.06
2022-08-10T08:39:50.946Z,47.03
2022-08-10T08:43:16.508Z,47.11
2022-08-10T08:46:58.788Z,47.33
2022-08-10T08:50:10.203Z,46.70
2022-08-10T08:54:02.314Z,46.24
2022-08-10T08:57:46.348Z,46.19
2022-08-10T09:00:56.936Z,46.37
2022-08-10T09:04:41.030Z,45.78
2022-08-10T09:08:06.201Z,45.73
2022-08-10T09:11:41.463Z,45.82
2022-08-10T09:15:02.600Z,45.86
2022-08-10T09:18:05.532Z,46.06
2022-08-10T09:21:28.161Z,46.05
2022-08-10T09:24:58.733Z,46.44
2022-08-10T09:28:09.943Z,46.46
2022-08-10T09:31:28.867Z,46.25
2022-08-10T09:36:20.690Z,45.48
2022-08-10T09:38:54.597Z,45.32
2022-08-10T09:43:02.251Z,45.27
2022-08-10T09:46:20.269Z,45.24
2022-08-10T09:49:59.717Z,45.42
2022-08-10T09:53:12.996Z,45.34
2022-08-10T09:56:29.005Z,45.54
2022-08-10T10:00:01.239Z,46.15
2022-08-10T10:03:26.365Z,46.03
2022-08-10T10:06:54.953Z,45.91
2022-08-10T10:10:18.892Z,45.46
2022-08-10T10:14:10.465Z,45.31
2022-08-10T10:17:27.191Z,45.56
2022-08-10T10:20:55.742Z,45.07
2022-08-10T10:24:48.189Z,44.86
2022-08-10T10:28:01.868Z,44.70
2022-08-10T10:31:16.603Z,44.83
2022-08-10T10:34:46.109Z,44.03
2022-08-10T10:38:10.166Z,43.55
2022-08-10T10:41:16.000Z,43.07
2022-08-10T10:44:42.133Z,42.65
2022-08-10T10:48:02.796Z,42.23
2022-08-10T10:51:25.625Z,41.46
2022-08-10T10:54:40.642Z,41.12
2022-08-10T10:58:24.255Z,40.90
2022-08-10T11:02:12.580Z,40.93
2022-08-10T11:05:23.231Z,41.43
2022-08-10T11:08:30.952Z,41.12
2022-08-10T11:12:01.646Z,41.00
2022-08-10T11:15:24.162Z,40.63
2022-08-10T11:18:39.953Z,40.22
2022-08-10T11:21:46.055Z,40.07
2022-08-10T11:24:57.289Z,40.65
2022-08-10T11:28:09.266Z,41.09
2022-08-10T11:31:24.370Z,40.73
2022-08-10T11:35:11.977Z,40.59
2022-08-10T11:39:04.098Z,40.49
2022-08-10T11:42:26.625Z,40.36
2022-08-10T11:45:51.569Z,39.64
2022-08-10T11:49:21.539Z,39.30
2022-08-10T11:52:51.914Z,38.97
2022-08-10T11:55:57.335Z,39.30
2022-08-10T11:59:20.005Z,38.70
2022-08-10T12:02:33.898Z,38.29
2022-08-10T12:05:51.770Z,38.28
2022-08-10T12:10:10.582Z,38.43
2022-08-10T12:12:23.750Z,39.03
2022-08-10T12:15:34.527Z,39.55
2022-08-10T12:18:50.711Z,39.21
2022-08-10T12:22:05.855Z,38.85
2022-08-10T12:25:55.901Z,39.02
2022-08-10T12:29:10.780Z,38.95
2022-08-10T12:32:25.375Z,39.56
2022-08-10T12:35:56.217Z,40.11
2022-08-10T12:39:21.653Z,40.56
2022-08-10T12:42:40.548Z,39.77
2022-08-10T12:46:15.865Z,39.55
2022-08-10T12:49:32.322Z,39.79
2022-08-10T12:52:44.848Z,39.38
2022-08-10T12:55:50.057Z,39.16
2022-08-10T12:58:59.371Z,38.83
2022-08-10T13:02:10.250Z,38.32
2022-08-10T13:05:15.182Z,37.55
2022-08-10T13:08:40.312Z,37.74
2022-08-10T13:12:35.929Z,38.37
2022-08-10T13:15:49.151Z,38.41
2022-08-10T13:18:52.918Z,38.55
2022-08-10T13:21:58.010Z,38.28
2022-08-10T13:25:03.992Z,38.19
2022-08-10T13:28:35.532Z,37.89
2022-08-10T13:32:04.415Z,37.16
2022-08-10T13:35:03.197Z,37.53
2022-08-10T13:38:09.094Z,37.68
2022-08-10T13:41:12.807Z,37.50
2022-08-10T13:44:27.915Z,37.59
2022-08-10T13:47:49.022Z,38.26
2022-08-10T13:51:00.355Z,38.75
2022-08-10T13:54:05.719Z,38.11
2022-08-10T13:57:11.653Z,37.69
2022-08-10T14:00:36.289Z,38.24
2022-08-10T14:03:41.536Z,37.71
2022-08-10T14:06:53.099Z,37.62
2022-08-10T14:10:08.106Z,37.77
2022-08-10T14:13:13.668Z,37.48
2022-08-10T14:16:18.674Z,37.57
2022-08-10T14:19:25.939Z,37.56
2022-08-10T14:22:43.329Z,37.50
2022-08-10T14:25:51.108Z,36.98
2022-08-10T14:29:19.648Z,36.70
2022-08-10T14:32:27.290Z,36.63
2022-08-10T14:36:23.338Z,36.74
2022-08-10T14:39:02.416Z,36.93
2022-08-10T14:42:22.636Z,36.93
2022-08-10T14:45:34.313Z,36.75
2022-08-10T14:48:42.444Z,36.17
2022-08-10T14:51:46.942Z,36.56
2022-08-10T14:54:51.612Z,36.86
2022-08-10T14:58:19.132Z,37.25
2022-08-10T15:01:22.705Z,37.38
2022-08-10T15:04:28.625Z,37.26
2022-08-10T15:07:33.861Z,37.28
2022-08-10T15:10:38.511Z,37.62
2022-08-10T15:14:29.224Z,38.13
2022-08-10T15:17:23.574Z,37.93
2022-08-10T15:20:31.568Z,38.41
2022-08-10T15:24:05.714Z,38.26
2022-08-10T15:27:00.118Z,38.06
2022-08-10T15:30:05.172Z,38.15
2022-08-10T15:33:57.742Z,38.22
2022-08-10T15:37:36.566Z,38.22
2022-08-10T15:40:51.848Z,38.03
2022-08-10T15:43:55.256Z,38.13
2022-08-10T15:47:02.613Z,38.28
2022-08-10T15:50:21.779Z,38.38
2022-08-10T15:53:49.030Z,38.63
2022-08-10T15:56:59.698Z,38.72
2022-08-10T16:00:09.066Z,38.55
2022-08-10T16:03:23.486Z,38.65
2022-08-10T16:06:43.483Z,38.48
2022-08-10T16:10:24.091Z,38.53
2022-08-10T16:14:00.460Z,38.48
2022-08-10T16:16:41.456Z,38.30
2022-08-10T16:19:52.315Z,38.50
2022-08-10T16:22:58.738Z,38.62
2022-08-10T16:26:14.960Z,39.19
2022-08-10T16:29:24.765Z,39.39
2022-08-10T16:32:30.032Z,39.30
2022-08-10T16:35:35.324Z,39.23
2022-08-10T16:38:42.485Z,39.22
2022-08-10T16:42:03.979Z,39.38
2022-08-10T16:45:11.127Z,39.49
2022-08-10T16:48:16.281Z,39.17
2022-08-10T16:51:41.240Z,39.12
2022-08-10T16:54:50.266Z,38.92
2022-08-10T16:57:56.878Z,38.96
2022-08-10T17:01:04.544Z,38.91
2022-08-10T17:04:10.265Z,38.81
2022-08-10T17:07:17.050Z,38.94
2022-08-10T17:10:21.480Z,38.97
2022-08-10T17:13:27.768Z,39.25
2022-08-10T17:16:41.690Z,39.40
2022-08-10T17:19:45.520Z,39.46
2022-08-10T17:22:54.738Z,39.94
2022-08-10T17:26:02.942Z,40.15
2022-08-10T17:29:57.755Z,40.21
2022-08-10T17:32:44.962Z,40.04
2022-08-10T17:35:50.714Z,40.11
2022-08-10T17:38:55.961Z,40.02
2022-08-10T17:42:01.079Z,40.19
2022-08-10T17:45:05.537Z,40.37
2022-08-10T17:48:09.721Z,40.53
2022-08-10T17:51:15.437Z,40.95
2022-08-10T17:54:24.271Z,41.11
2022-08-10T17:57:28.122Z,41.31
2022-08-10T18:00:33.320Z,41.39
2022-08-10T18:03:40.986Z,41.82
2022-08-10T18:06:44.516Z,41.89
2022-08-10T18:09:55.048Z,42.39
2022-08-10T18:13:00.773Z,42.57
2022-08-10T18:16:05.286Z,42.72
2022-08-10T18:19:11.680Z,42.93
2022-08-10T18:22:16.847Z,42.92
2022-08-10T18:25:27.011Z,43.06
2022-08-10T18:28:32.069Z,42.99
2022-08-10T18:31:37.360Z,42.97
2022-08-10T18:34:46.465Z,43.08
2022-08-10T18:37:51.027Z,43.13
2022-08-10T18:41:00.493Z,43.32
2022-08-10T18:44:13.862Z,43.51
2022-08-10T18:47:28.071Z,43.40
2022-08-10T18:50:35.201Z,43.52
2022-08-10T18:53:50.607Z,43.68
2022-08-10T18:56:59.099Z,43.78
2022-08-10T19:00:08.082Z,43.76
2022-08-10T19:03:35.420Z,43.82
2022-08-10T19:07:00.169Z,43.94
2022-08-10T19:10:14.208Z,44.20
2022-08-10T19:13:30.440Z,44.41
2022-08-10T19:16:36.439Z,44.52
2022-08-10T19:20:04.194Z,44.72
2022-08-10T19:23:27.288Z,44.94
2022-08-10T19:26:56.982Z,45.07
2022-08-10T19:30:13.314Z,45.30
2022-08-10T19:33:35.597Z,45.29
2022-08-10T19:36:55.008Z,45.45
2022-08-10T19:40:44.169Z,45.66
2022-08-10T19:44:00.251Z,45.54
2022-08-10T19:47:41.013Z,45.44
2022-08-10T19:50:48.440Z,45.69
2022-08-10T19:54:06.497Z,45.62
2022-08-10T19:57:12.832Z,45.74
2022-08-10T20:00:23.019Z,45.94
2022-08-10T20:03:51.831Z,45.99
2022-08-10T20:06:57.575Z,46.02
2022-08-10T20:10:23.445Z,46.10
2022-08-10T20:13:32.728Z,45.92
2022-08-10T20:16:39.792Z,45.81
2022-08-10T20:20:03.575Z,46.12
2022-08-10T20:23:19.198Z,46.02
2022-08-10T20:26:29.498Z,46.00
2022-08-10T20:29:58.585Z,46.00
2022-08-10T20:33:16.388Z,46.04
2022-08-10T20:36:56.739Z,46.17
2022-08-10T20:40:09.202Z,46.18
2022-08-10T20:43:40.995Z,46.06
2022-08-10T20:47:01.484Z,46.09
2022-08-10T20:50:35.773Z,46.00
2022-08-10T20:53:47.677Z,46.07
2022-08-10T20:57:53.647Z,46.06
2022-08-10T21:00:52.590Z,46.22
2022-08-10T21:04:39.510Z,46.07
2022-08-10T21:08:01.825Z,46.19
2022-08-10T21:11:32.487Z,46.22
2022-08-10T21:14:56.996Z,46.46
2022-08-10T21:18:20.628Z,46.31
2022-08-10T21:21:59.102Z,46.46
2022-08-10T21:25:06.593Z,46.60
2022-08-10T21:28:28.956Z,46.83
2022-08-10T21:31:50.836Z,46.97
2022-08-10T21:35:20.235Z,46.94
2022-08-10T21:39:10.411Z,47.08
2022-08-10T21:43:05.845Z,47.13
2022-08-10T21:46:55.076Z,47.40
2022-08-10T21:50:27.296Z,47.50
2022-08-10T21:53:56.613Z,47.61
2022-08-10T21:57:38.261Z,47.77
2022-08-10T22:01:12.109Z,47.93
2022-08-10T22:04:38.660Z,48.03
2022-08-10T22:08:07.940Z,48.12
2022-08-10T22:11:39.080Z,48.29
2022-08-10T22:15:07.319Z,48.17
2022-08-10T22:18:31.572Z,48.25
2022-08-10T22:22:27.610Z,48.30
2022-08-10T22:25:56.779Z,48.26
2022-08-10T22:31:27.655Z,48.44
2022-08-10T22:33:14.218Z,48.57
2022-08-10T22:36:52.117Z,48.61
2022-08-10T22:40:25.467Z,48.69
2022-08-10T22:43:50.747Z,48.97
2022-08-10T22:47:12.507Z,48.78
2022-08-10T22:50:20.984Z,48.82
2022-08-10T22:53:54.017Z,48.93
2022-08-10T22:57:15.880Z,49.13
2022-08-10T23:00:30.753Z,49.18
2022-08-10T23:03:46.009Z,49.42
2022-08-10T23:07:04.825Z,49.40
2022-08-10T23:10:10.752Z,49.50
2022-08-10T23:13:35.393Z,49.46
2022-08-10T23:17:07.611Z,49.55
2022-08-10T23:20:15.585Z,49.63
2022-08-10T23:23:23.493Z,49.87
2022-08-10T23:26:30.254Z,49.96
2022-08-10T23:29:35.569Z,49.97
2022-08-10T23:32:45.255Z,49.97
2022-08-10T23:36:30.535Z,50.12
2022-08-10T23:39:26.099Z,50.10
2022-08-10T23:42:39.881Z,50.16
2022-08-10T23:45:53.093Z,50.15
2022-08-10T23:49:00.702Z,50.16
2022-08-10T23:52:10.957Z,50.18
2022-08-10T23:55:30.970Z,50.18
2022-08-10T23:58:48.795Z,50.16
